Terminal Aerodrome Forecast
Issued by NWS

Home | Current Version | Previous Version | Text Only | Print | Product List | Glossary Off
Versions: 1 2 3 4 5 6 7 8 9 10 11 12 13 14 15 16 17 18

297
FTUS43 KTOP 151729
TAFFOE
TAF
KFOE 151729Z 1518/1618 09005KT 3SM -FZRA BR OVC004
      TEMPO 1518/1520 2SM -FZRA OVC004
     FM152100 08006KT 3SM -RA BR OVC004
     FM160100 07005KT 1 1/2SM -RA BR OVC003=

USA.gov is the U.S. government's official web portal to all federal, state and local government web resources and services.